createdAt,value
2019-02-22T00:01:29.811Z,8.80
2019-02-22T00:03:58.234Z,8.81
2019-02-22T00:06:26.642Z,8.80
2019-02-22T00:08:55.051Z,8.80
2019-02-22T00:11:23.495Z,8.80
2019-02-22T00:13:51.906Z,8.79
2019-02-22T00:16:20.327Z,8.79
2019-02-22T00:18:48.748Z,8.79
2019-02-22T00:21:17.237Z,8.79
2019-02-22T00:23:45.673Z,8.79
2019-02-22T00:26:14.080Z,8.79
2019-02-22T00:28:42.496Z,8.79
2019-02-22T00:31:10.938Z,8.80
2019-02-22T00:33:39.351Z,8.78
2019-02-22T00:36:07.760Z,8.78
2019-02-22T00:38:36.181Z,8.78
2019-02-22T00:41:04.592Z,8.77
2019-02-22T00:43:33.018Z,8.78
2019-02-22T00:46:01.509Z,8.78
2019-02-22T00:48:29.911Z,8.77
2019-02-22T00:50:58.322Z,8.78
2019-02-22T00:53:26.793Z,8.77
2019-02-22T00:55:55.202Z,8.76
2019-02-22T00:58:23.640Z,8.77
2019-02-22T01:00:52.048Z,8.76
2019-02-22T01:03:20.461Z,8.76
2019-02-22T01:05:48.874Z,8.76
2019-02-22T01:08:17.269Z,8.75
2019-02-22T01:10:45.697Z,8.76
2019-02-22T01:13:14.100Z,8.76
2019-02-22T01:15:42.535Z,8.77
2019-02-22T01:18:10.945Z,8.76
2019-02-22T01:20:39.392Z,8.74
2019-02-22T01:23:07.795Z,8.75
2019-02-22T01:25:36.226Z,8.74
2019-02-22T01:28:04.656Z,8.74
2019-02-22T01:30:33.069Z,8.74
2019-02-22T01:33:01.479Z,8.75
2019-02-22T01:35:30.147Z,8.74
2019-02-22T01:37:58.541Z,8.75
2019-02-22T01:40:26.973Z,8.73
2019-02-22T01:42:55.387Z,8.73
2019-02-22T01:45:23.805Z,8.73
2019-02-22T01:47:52.191Z,8.72
2019-02-22T01:50:22.638Z,8.72
2019-02-22T01:52:51.034Z,8.73
2019-02-22T01:55:19.436Z,8.72
2019-02-22T01:57:47.862Z,8.74
2019-02-22T02:00:16.535Z,8.72
2019-02-22T02:02:45.107Z,8.74
2019-02-22T02:05:13.505Z,8.72
2019-02-22T02:07:42.129Z,8.73
2019-02-22T02:10:10.555Z,8.72
2019-02-22T02:12:38.961Z,8.74
2019-02-22T02:15:07.625Z,8.71
2019-02-22T02:17:36.059Z,8.71
2019-02-22T02:20:06.217Z,8.71
2019-02-22T02:22:34.614Z,8.71
2019-02-22T02:25:03.107Z,8.72
2019-02-22T02:27:31.517Z,8.70
2019-02-22T02:29:59.923Z,8.70
2019-02-22T02:32:28.440Z,8.69
2019-02-22T02:34:56.883Z,8.70
2019-02-22T02:37:25.316Z,8.69
2019-02-22T02:39:53.728Z,8.70
2019-02-22T02:42:22.170Z,8.70
2019-02-22T02:44:50.590Z,8.69
2019-02-22T02:47:18.997Z,8.69
2019-02-22T02:49:47.433Z,8.68
2019-02-22T02:52:15.877Z,8.68
2019-02-22T02:54:44.285Z,8.68
2019-02-22T02:57:12.716Z,8.67
2019-02-22T02:59:41.226Z,8.68
2019-02-22T03:02:11.261Z,8.67
2019-02-22T03:04:39.693Z,8.66
2019-02-22T03:07:09.819Z,8.66
2019-02-22T03:09:38.271Z,8.67
2019-02-22T03:12:06.675Z,8.65
2019-02-22T03:14:35.084Z,8.64
2019-02-22T03:17:03.531Z,8.65
2019-02-22T03:19:31.929Z,8.64
2019-02-22T03:22:00.345Z,8.65
2019-02-22T03:24:28.784Z,8.65
2019-02-22T03:26:57.222Z,8.64
2019-02-22T03:29:25.655Z,8.64
2019-02-22T03:31:54.071Z,8.64
2019-02-22T03:34:22.528Z,8.64
2019-02-22T03:36:50.922Z,8.64
2019-02-22T03:39:19.342Z,8.62
2019-02-22T03:41:47.785Z,8.62
2019-02-22T03:44:16.218Z,8.62
2019-02-22T03:46:44.703Z,8.62
2019-02-22T03:49:13.108Z,8.60
2019-02-22T03:51:41.543Z,8.61
2019-02-22T03:54:10.039Z,8.59
2019-02-22T03:56:38.520Z,8.59
2019-02-22T03:59:06.944Z,8.58
2019-02-22T04:01:35.443Z,8.59
2019-02-22T04:04:03.944Z,8.59
2019-02-22T04:06:32.362Z,8.57
2019-02-22T04:09:00.780Z,8.58
2019-02-22T04:11:29.197Z,8.60
2019-02-22T04:13:57.625Z,8.57
2019-02-22T04:16:26.069Z,8.56
2019-02-22T04:18:54.506Z,8.57
2019-02-22T04:21:22.938Z,8.56
2019-02-22T04:23:51.376Z,8.56
2019-02-22T04:26:19.780Z,8.55
2019-02-22T04:28:48.196Z,8.55
2019-02-22T04:31:16.653Z,8.56
2019-02-22T04:33:45.132Z,8.56
2019-02-22T04:36:13.550Z,8.54
2019-02-22T04:38:41.993Z,8.55
2019-02-22T04:41:10.382Z,8.55
2019-02-22T04:43:38.892Z,8.55
2019-02-22T04:46:07.359Z,8.55
2019-02-22T04:48:35.783Z,8.54
2019-02-22T04:51:04.230Z,8.53
2019-02-22T04:53:32.632Z,8.54
2019-02-22T04:56:01.058Z,8.53
2019-02-22T04:58:29.546Z,8.54
2019-02-22T05:00:57.961Z,8.55
2019-02-22T05:03:26.436Z,8.54
2019-02-22T05:05:54.876Z,8.54
2019-02-22T05:08:23.280Z,8.53
2019-02-22T05:10:51.738Z,8.54
2019-02-22T05:13:20.160Z,8.53
2019-02-22T05:15:48.612Z,8.54
2019-02-22T05:18:17.058Z,8.53
2019-02-22T05:20:45.540Z,8.54
2019-02-22T05:23:13.946Z,8.54
2019-02-22T05:25:42.375Z,8.53
2019-02-22T05:28:10.809Z,8.52
2019-02-22T05:30:39.252Z,8.52
2019-02-22T05:33:07.680Z,8.53
2019-02-22T05:35:36.107Z,8.54
2019-02-22T05:38:04.513Z,8.53
2019-02-22T05:40:32.971Z,8.53
2019-02-22T05:43:01.360Z,8.53
2019-02-22T05:45:29.800Z,8.53
2019-02-22T05:47:58.205Z,8.52
2019-02-22T05:50:26.674Z,8.52
2019-02-22T05:52:55.121Z,8.52
2019-02-22T05:55:23.541Z,8.53
2019-02-22T05:57:51.966Z,8.53
2019-02-22T06:00:20.445Z,8.53
2019-02-22T06:02:48.896Z,8.51
2019-02-22T06:05:17.404Z,8.51
2019-02-22T06:07:45.886Z,8.51
2019-02-22T06:10:14.315Z,8.52
2019-02-22T06:12:42.735Z,8.53
2019-02-22T06:15:11.639Z,8.54
2019-02-22T06:17:40.055Z,8.54
2019-02-22T06:20:11.126Z,8.54
2019-02-22T06:22:39.550Z,8.54
2019-02-22T06:25:10.870Z,8.54
2019-02-22T06:27:39.409Z,8.54
2019-02-22T06:30:09.995Z,8.54
2019-02-22T06:32:38.589Z,8.55
2019-02-22T06:35:08.940Z,8.55
2019-02-22T06:37:37.554Z,8.55
2019-02-22T06:40:08.612Z,8.54
2019-02-22T06:42:45.374Z,8.53
2019-02-22T06:45:08.611Z,8.53
2019-02-22T06:47:37.121Z,8.54
2019-02-22T06:50:07.888Z,8.54
2019-02-22T06:52:36.422Z,8.54
2019-02-22T06:55:05.838Z,8.56
2019-02-22T06:57:34.356Z,8.55
2019-02-22T07:00:03.349Z,8.55
2019-02-22T07:02:31.792Z,8.55
2019-02-22T07:05:00.328Z,8.58
2019-02-22T07:07:28.709Z,8.57
2019-02-22T07:09:57.121Z,8.57
2019-02-22T07:12:27.202Z,8.59
2019-02-22T07:14:55.613Z,8.59
2019-02-22T07:17:24.045Z,8.59
2019-02-22T07:19:52.526Z,8.59
2019-02-22T07:22:20.932Z,8.59
2019-02-22T07:24:49.436Z,8.60
2019-02-22T07:27:17.814Z,8.60
2019-02-22T07:29:46.266Z,8.59
2019-02-22T07:32:14.680Z,8.60
2019-02-22T07:34:43.129Z,8.61
2019-02-22T07:37:11.540Z,8.61
2019-02-22T07:39:39.977Z,8.64
2019-02-22T07:42:08.401Z,8.65
2019-02-22T07:44:36.817Z,8.65
2019-02-22T07:47:05.299Z,8.65
2019-02-22T07:49:33.740Z,8.67
2019-02-22T07:52:02.162Z,8.67
2019-02-22T07:54:30.570Z,8.68
2019-02-22T07:56:59.014Z,8.68
2019-02-22T07:59:27.415Z,8.69
2019-02-22T08:01:55.922Z,8.71
2019-02-22T08:04:24.360Z,8.73
2019-02-22T08:06:52.820Z,8.72
2019-02-22T08:09:21.245Z,8.73
2019-02-22T08:11:49.677Z,8.75
2019-02-22T08:14:18.107Z,8.77
2019-02-22T08:16:46.540Z,8.78
2019-02-22T08:19:14.959Z,8.79
2019-02-22T08:21:43.383Z,8.80
2019-02-22T08:24:11.816Z,8.81
2019-02-22T08:26:40.319Z,8.82
2019-02-22T08:29:08.755Z,8.82
2019-02-22T08:31:37.304Z,8.84
2019-02-22T08:34:05.706Z,8.84
2019-02-22T08:36:34.149Z,8.85
2019-02-22T08:39:02.551Z,8.87
2019-02-22T08:41:30.987Z,8.85
2019-02-22T08:43:59.406Z,8.86
2019-02-22T08:46:27.837Z,8.88
2019-02-22T08:48:56.256Z,8.89
2019-02-22T08:51:24.704Z,8.91
2019-02-22T08:53:53.118Z,8.92
2019-02-22T08:56:21.533Z,8.92
2019-02-22T08:58:50.030Z,8.93
2019-02-22T09:01:18.518Z,8.96
2019-02-22T09:03:50.516Z,9.01
2019-02-22T09:06:17.097Z,9.03
2019-02-22T09:08:45.503Z,9.07
2019-02-22T09:11:13.956Z,9.09
2019-02-22T09:13:43.876Z,9.12
2019-02-22T09:16:12.488Z,9.13
2019-02-22T09:18:40.898Z,9.21
2019-02-22T09:21:09.377Z,9.25
2019-02-22T09:23:37.824Z,9.23
2019-02-22T09:26:06.233Z,9.27
2019-02-22T09:28:34.687Z,9.32
2019-02-22T09:31:03.131Z,9.37
2019-02-22T09:33:31.534Z,9.37
2019-02-22T09:35:59.966Z,9.42
2019-02-22T09:38:28.392Z,9.46
2019-02-22T09:40:56.820Z,9.52
2019-02-22T09:43:25.233Z,9.55
2019-02-22T09:45:53.674Z,9.62
2019-02-22T09:48:22.089Z,9.63
2019-02-22T09:50:50.581Z,9.64
2019-02-22T09:53:19.067Z,9.65
2019-02-22T09:55:47.485Z,9.70
2019-02-22T09:58:15.891Z,9.74
2019-02-22T10:00:44.323Z,9.79
2019-02-22T10:03:12.738Z,9.87
2019-02-22T10:05:41.157Z,9.91
2019-02-22T10:08:09.583Z,9.93
2019-02-22T10:10:38.017Z,9.93
2019-02-22T10:13:06.701Z,9.97
2019-02-22T10:15:35.136Z,9.97
2019-02-22T10:18:03.572Z,9.96
2019-02-22T10:20:31.984Z,10.01
2019-02-22T10:23:00.417Z,10.08
2019-02-22T10:25:29.001Z,10.11
2019-02-22T10:27:57.522Z,10.09
2019-02-22T10:30:25.928Z,10.08
2019-02-22T10:32:54.382Z,10.08
2019-02-22T10:35:22.813Z,10.01
2019-02-22T10:37:51.246Z,9.95
2019-02-22T10:40:19.651Z,9.94
2019-02-22T10:42:48.106Z,9.88
2019-02-22T10:45:16.490Z,9.87
2019-02-22T10:47:44.911Z,10.05
2019-02-22T10:50:13.413Z,10.27
2019-02-22T10:52:41.824Z,10.40
2019-02-22T10:55:12.313Z,10.41
2019-02-22T10:57:40.860Z,10.42
2019-02-22T11:00:12.843Z,10.44
2019-02-22T11:02:41.257Z,10.46
2019-02-22T11:05:09.944Z,10.47
2019-02-22T11:07:38.508Z,10.44
2019-02-22T11:10:09.779Z,10.50
2019-02-22T11:12:38.220Z,10.53
2019-02-22T11:15:09.592Z,10.58
2019-02-22T11:17:38.032Z,10.61
2019-02-22T11:20:10.759Z,10.63
2019-02-22T11:22:39.276Z,10.61
2019-02-22T11:25:13.717Z,10.65
2019-02-22T11:27:42.152Z,10.69
2019-02-22T11:30:15.140Z,10.76
2019-02-22T11:32:43.653Z,10.78
2019-02-22T11:35:12.187Z,10.84
2019-02-22T11:37:40.584Z,10.88
2019-02-22T11:40:12.136Z,10.84
2019-02-22T11:42:40.626Z,10.84
2019-02-22T11:45:10.221Z,10.84
2019-02-22T11:47:38.698Z,10.86
2019-02-22T11:50:11.345Z,10.83
2019-02-22T11:52:39.799Z,10.81
2019-02-22T11:55:09.133Z,10.85
2019-02-22T11:57:37.645Z,10.92
2019-02-22T12:00:15.842Z,10.97
2019-02-22T12:02:45.410Z,11.01
2019-02-22T12:05:14.288Z,11.03
2019-02-22T12:07:42.762Z,11.04
2019-02-22T12:10:11.331Z,11.06
2019-02-22T12:12:39.773Z,11.13
2019-02-22T12:15:13.375Z,11.12
2019-02-22T12:17:41.814Z,11.10
2019-02-22T12:20:11.309Z,11.18
2019-02-22T12:22:39.725Z,11.12
2019-02-22T12:25:10.708Z,11.07
2019-02-22T12:27:39.140Z,11.04
2019-02-22T12:30:15.423Z,11.05
2019-02-22T12:32:43.925Z,11.05
2019-02-22T12:35:12.421Z,11.07
2019-02-22T12:37:40.974Z,11.06
2019-02-22T12:40:10.918Z,11.18
2019-02-22T12:42:39.326Z,11.20
2019-02-22T12:45:10.336Z,11.19
2019-02-22T12:47:38.819Z,11.23
2019-02-22T12:50:11.948Z,11.28
2019-02-22T12:52:40.357Z,11.26
2019-02-22T12:55:10.122Z,11.25
2019-02-22T12:57:38.552Z,11.28
2019-02-22T13:00:10.039Z,11.28
2019-02-22T13:02:38.444Z,11.33
2019-02-22T13:05:09.314Z,11.45
2019-02-22T13:07:37.719Z,11.52
2019-02-22T13:10:07.384Z,11.58
2019-02-22T13:12:35.916Z,11.66
2019-02-22T13:15:13.620Z,11.77
2019-02-22T13:17:36.612Z,11.82
2019-02-22T13:20:06.768Z,11.84
2019-02-22T13:22:35.207Z,11.84
2019-02-22T13:25:04.469Z,11.81
2019-02-22T13:27:32.905Z,11.80
2019-02-22T13:30:01.408Z,11.72
2019-02-22T13:32:29.922Z,11.83
2019-02-22T13:34:58.352Z,11.96
2019-02-22T13:37:26.864Z,11.96
2019-02-22T13:39:55.359Z,12.04
2019-02-22T13:42:23.840Z,12.07
2019-02-22T13:44:52.273Z,12.12
2019-02-22T13:47:20.841Z,12.19
2019-02-22T13:49:49.407Z,12.22
2019-02-22T13:52:17.837Z,12.19
2019-02-22T13:54:46.359Z,12.15
2019-02-22T13:57:14.760Z,12.10
2019-02-22T13:59:43.185Z,12.09
2019-02-22T14:02:11.627Z,12.06
2019-02-22T14:04:40.102Z,12.09
2019-02-22T14:07:08.623Z,12.11
2019-02-22T14:09:37.060Z,12.13
2019-02-22T14:12:05.543Z,12.13
2019-02-22T14:14:34.051Z,12.12
2019-02-22T14:17:02.482Z,12.08
2019-02-22T14:19:30.906Z,12.04
2019-02-22T14:21:59.315Z,12.03
2019-02-22T14:24:27.758Z,12.06
2019-02-22T14:26:56.138Z,12.07
2019-02-22T14:29:24.551Z,12.09
2019-02-22T14:31:52.987Z,12.12
2019-02-22T14:34:21.393Z,12.20
2019-02-22T14:36:49.916Z,12.23
2019-02-22T14:39:18.301Z,12.29
2019-02-22T14:41:46.799Z,12.48
2019-02-22T14:44:15.218Z,12.62
2019-02-22T14:46:43.652Z,12.70
2019-02-22T14:49:12.092Z,12.79
2019-02-22T14:51:40.499Z,12.82
2019-02-22T14:54:08.948Z,12.85
2019-02-22T14:56:37.344Z,12.89
2019-02-22T14:59:05.795Z,12.98
2019-02-22T15:01:35.701Z,12.70
2019-02-22T15:04:04.359Z,12.40
2019-02-22T15:06:32.787Z,12.21
2019-02-22T15:09:01.212Z,12.09
2019-02-22T15:11:31.276Z,11.99
2019-02-22T15:13:59.842Z,11.89
2019-02-22T15:16:29.891Z,11.82
2019-02-22T15:18:58.327Z,11.78
2019-02-22T15:21:26.749Z,11.73
2019-02-22T15:23:55.259Z,11.70
2019-02-22T15:26:23.735Z,11.70
2019-02-22T15:28:52.173Z,11.68
2019-02-22T15:31:20.584Z,11.67
2019-02-22T15:33:48.998Z,11.65
2019-02-22T15:36:17.419Z,11.66
2019-02-22T15:38:45.859Z,11.64
2019-02-22T15:41:14.279Z,11.65
2019-02-22T15:43:42.796Z,11.65
2019-02-22T15:46:12.454Z,11.66
2019-02-22T15:48:41.109Z,11.67
2019-02-22T15:51:09.590Z,11.64
2019-02-22T15:53:38.085Z,11.65
2019-02-22T15:56:06.513Z,11.68
2019-02-22T15:58:34.943Z,11.72
2019-02-22T16:01:03.360Z,11.75
2019-02-22T16:03:33.445Z,11.81
2019-02-22T16:06:01.853Z,11.81
2019-02-22T16:08:30.287Z,11.81
2019-02-22T16:10:58.707Z,11.79
2019-02-22T16:13:27.128Z,11.77
2019-02-22T16:15:55.532Z,11.78
2019-02-22T16:18:23.961Z,11.79
2019-02-22T16:20:52.394Z,11.80
2019-02-22T16:23:20.796Z,11.78
2019-02-22T16:25:49.216Z,11.77
2019-02-22T16:28:17.621Z,11.73
2019-02-22T16:30:46.167Z,11.71
2019-02-22T16:33:14.616Z,11.65
2019-02-22T16:35:43.046Z,11.58
2019-02-22T16:38:11.474Z,11.53
2019-02-22T16:40:39.883Z,11.46
2019-02-22T16:43:08.314Z,11.40
2019-02-22T16:45:36.725Z,11.36
2019-02-22T16:48:05.294Z,11.32
2019-02-22T16:50:33.727Z,11.31
2019-02-22T16:53:02.153Z,11.26
2019-02-22T16:55:30.613Z,11.22
2019-02-22T16:57:59.017Z,11.19
2019-02-22T17:00:27.506Z,11.14
2019-02-22T17:02:56.459Z,11.10
2019-02-22T17:05:25.042Z,11.05
2019-02-22T17:07:53.464Z,11.02
2019-02-22T17:10:21.972Z,10.98
2019-02-22T17:12:50.427Z,10.95
2019-02-22T17:15:18.861Z,10.96
2019-02-22T17:17:47.309Z,10.95
2019-02-22T17:20:16.257Z,10.93
2019-02-22T17:22:44.765Z,10.90
2019-02-22T17:25:18.444Z,10.88
2019-02-22T17:27:46.848Z,10.84
2019-02-22T17:30:17.037Z,10.79
2019-02-22T17:32:45.441Z,10.76
2019-02-22T17:35:13.877Z,10.70
2019-02-22T17:37:42.369Z,10.63
2019-02-22T17:40:19.554Z,10.59
2019-02-22T17:42:47.982Z,10.55
2019-02-22T17:45:16.410Z,10.51
2019-02-22T17:47:44.822Z,10.47
2019-02-22T17:50:13.309Z,10.42
2019-02-22T17:52:41.758Z,10.39
2019-02-22T17:55:10.729Z,10.32
2019-02-22T17:57:39.134Z,10.30
2019-02-22T18:00:19.809Z,10.26
2019-02-22T18:02:48.227Z,10.23
2019-02-22T18:05:16.642Z,10.19
2019-02-22T18:07:45.104Z,10.17
2019-02-22T18:10:13.579Z,10.13
2019-02-22T18:12:42.007Z,10.08
2019-02-22T18:15:15.185Z,10.05
2019-02-22T18:17:45.682Z,10.03
2019-02-22T18:20:14.251Z,10.01
2019-02-22T18:22:42.746Z,10.00
2019-02-22T18:25:11.156Z,9.97
2019-02-22T18:27:39.669Z,9.90
2019-02-22T18:30:22.588Z,9.88
2019-02-22T18:32:51.022Z,9.80
2019-02-22T18:35:19.489Z,9.73
2019-02-22T18:37:48.160Z,9.67
2019-02-22T18:40:18.380Z,9.67
2019-02-22T18:42:46.855Z,9.65
2019-02-22T18:45:15.366Z,9.66
2019-02-22T18:47:43.755Z,9.65
2019-02-22T18:50:12.250Z,9.58
2019-02-22T18:52:40.684Z,9.56
2019-02-22T18:55:10.450Z,9.54
2019-02-22T18:57:39.017Z,9.49
2019-02-22T19:00:17.743Z,9.43
2019-02-22T19:02:46.173Z,9.37
2019-02-22T19:05:14.774Z,9.40
2019-02-22T19:07:43.270Z,9.39
2019-02-22T19:10:14.374Z,9.33
2019-02-22T19:12:42.862Z,9.27
2019-02-22T19:15:12.952Z,9.19
2019-02-22T19:17:41.539Z,9.24
2019-02-22T19:20:20.755Z,9.28
2019-02-22T19:22:49.254Z,9.30
2019-02-22T19:25:17.656Z,9.27
2019-02-22T19:27:46.697Z,9.26
2019-02-22T19:30:17.949Z,9.24
2019-02-22T19:32:46.432Z,9.25
2019-02-22T19:35:14.926Z,9.25
2019-02-22T19:37:43.429Z,9.24
2019-02-22T19:40:17.586Z,9.22
2019-02-22T19:42:46.017Z,9.17
2019-02-22T19:45:14.496Z,9.16
2019-02-22T19:47:42.990Z,9.15
2019-02-22T19:50:13.149Z,9.13
2019-02-22T19:52:41.699Z,9.09
2019-02-22T19:55:15.849Z,9.02
2019-02-22T19:57:44.334Z,8.99
2019-02-22T20:00:17.520Z,8.91
2019-02-22T20:02:46.103Z,8.90
2019-02-22T20:05:15.349Z,8.89
2019-02-22T20:07:43.959Z,8.87
2019-02-22T20:10:18.307Z,8.84
2019-02-22T20:12:45.275Z,8.83
2019-02-22T20:15:17.928Z,8.80
2019-02-22T20:17:53.746Z,8.76
2019-02-22T20:20:17.847Z,8.68
2019-02-22T20:22:46.275Z,8.55
2019-02-22T20:25:14.962Z,8.60
2019-02-22T20:27:43.391Z,8.56
2019-02-22T20:30:18.878Z,8.54
2019-02-22T20:32:47.343Z,8.53
2019-02-22T20:35:24.111Z,8.52
2019-02-22T20:37:53.413Z,8.55
2019-02-22T20:40:22.203Z,8.52
2019-02-22T20:42:50.752Z,8.51
2019-02-22T20:45:19.262Z,8.54
2019-02-22T20:47:47.686Z,8.51
2019-02-22T20:50:16.176Z,8.47
2019-02-22T20:52:44.658Z,8.39
2019-02-22T20:55:13.346Z,8.34
2019-02-22T20:57:41.758Z,8.31
2019-02-22T21:00:16.848Z,5.87
2019-02-22T21:02:45.320Z,8.26
2019-02-22T21:05:13.761Z,8.22
2019-02-22T21:07:42.159Z,8.23
2019-02-22T21:10:15.875Z,8.12
2019-02-22T21:12:44.430Z,8.15
2019-02-22T21:15:13.796Z,8.14
2019-02-22T21:17:42.343Z,8.03
2019-02-22T21:20:13.453Z,8.01
2019-02-22T21:22:41.958Z,7.99
2019-02-22T21:25:11.967Z,7.93
2019-02-22T21:27:40.444Z,7.84
2019-02-22T21:30:15.035Z,7.82
2019-02-22T21:32:43.469Z,7.83
2019-02-22T21:35:12.024Z,7.86
2019-02-22T21:37:42.097Z,7.89
2019-02-22T21:40:13.945Z,7.89
2019-02-22T21:42:42.421Z,7.87
2019-02-22T21:45:14.885Z,7.83
2019-02-22T21:47:54.124Z,7.83
2019-02-22T21:50:14.490Z,7.79
2019-02-22T21:52:42.978Z,7.79
2019-02-22T21:55:15.686Z,7.77
2019-02-22T21:57:44.098Z,7.75
2019-02-22T22:00:20.789Z,7.62
2019-02-22T22:02:49.185Z,7.64
2019-02-22T22:05:17.655Z,7.63
2019-02-22T22:07:46.147Z,7.68
2019-02-22T22:10:14.628Z,7.69
2019-02-22T22:12:43.133Z,7.65
2019-02-22T22:15:15.352Z,7.68
2019-02-22T22:17:43.854Z,7.69
2019-02-22T22:20:12.425Z,7.68
2019-02-22T22:22:41.042Z,7.57
2019-02-22T22:25:14.052Z,7.46
2019-02-22T22:27:42.470Z,7.39
2019-02-22T22:30:12.441Z,7.36
2019-02-22T22:32:40.856Z,7.33
2019-02-22T22:35:11.772Z,7.29
2019-02-22T22:37:40.196Z,7.29
2019-02-22T22:40:10.341Z,7.26
2019-02-22T22:42:38.769Z,7.29
2019-02-22T22:45:10.362Z,7.30
2019-02-22T22:47:38.804Z,7.33
2019-02-22T22:50:09.839Z,7.31
2019-02-22T22:52:38.268Z,7.20
2019-02-22T22:55:08.212Z,7.08
2019-02-22T22:57:36.723Z,7.05
2019-02-22T23:00:17.206Z,7.03
2019-02-22T23:02:45.632Z,6.94
2019-02-22T23:05:14.183Z,6.87
2019-02-22T23:07:42.628Z,6.94
2019-02-22T23:10:11.179Z,7.03
2019-02-22T23:12:39.648Z,7.04
2019-02-22T23:15:08.077Z,6.97
2019-02-22T23:17:36.489Z,6.91
2019-02-22T23:20:07.043Z,6.92
2019-02-22T23:22:35.594Z,6.90
2019-02-22T23:25:04.446Z,6.89
2019-02-22T23:27:32.855Z,6.82
2019-02-22T23:30:01.264Z,6.79
2019-02-22T23:32:29.678Z,6.87
2019-02-22T23:34:58.105Z,6.77
2019-02-22T23:37:26.532Z,6.80
2019-02-22T23:39:54.978Z,6.82
2019-02-22T23:42:23.371Z,6.84
2019-02-22T23:44:51.766Z,6.85
2019-02-22T23:47:20.190Z,6.82
2019-02-22T23:49:48.613Z,6.75
2019-02-22T23:52:17.016Z,6.63
2019-02-22T23:54:45.425Z,6.52
2019-02-22T23:57:13.896Z,6.50
2019-02-22T23:59:42.294Z,6.51
